createdAt,value
2022-08-05T00:01:28.124Z,27.35
2022-08-05T00:06:33.357Z,27.22
2022-08-05T00:11:48.315Z,27.16
2022-08-05T00:16:53.678Z,27.16
2022-08-05T00:21:55.702Z,27.10
2022-08-05T00:26:58.593Z,27.07
2022-08-05T00:32:12.142Z,27.06
2022-08-05T00:37:15.373Z,26.97
2022-08-05T00:42:35.278Z,26.86
2022-08-05T00:47:56.601Z,26.99
2022-08-05T00:52:59.004Z,26.89
2022-08-05T00:58:01.762Z,26.86
2022-08-05T01:03:07.936Z,26.71
2022-08-05T01:08:30.789Z,26.64
2022-08-05T01:14:08.944Z,26.66
2022-08-05T01:19:36.599Z,26.55
2022-08-05T01:24:59.820Z,26.56
2022-08-05T01:30:05.301Z,26.51
2022-08-05T01:35:51.722Z,26.33
2022-08-05T01:40:53.156Z,26.28
2022-08-05T01:45:57.703Z,26.29
2022-08-05T01:51:12.185Z,26.16
2022-08-05T01:58:11.544Z,26.19
2022-08-05T02:01:40.910Z,26.19
2022-08-05T02:06:45.027Z,26.17
2022-08-05T02:12:10.023Z,26.18
2022-08-05T02:18:14.625Z,26.09
2022-08-05T02:23:03.022Z,25.93
2022-08-05T02:28:09.154Z,25.94
2022-08-05T02:33:24.164Z,25.87
2022-08-05T02:38:35.100Z,25.89
2022-08-05T02:44:06.229Z,25.86
2022-08-05T02:49:05.993Z,25.85
2022-08-05T02:54:34.801Z,25.87
2022-08-05T02:59:48.092Z,25.80
2022-08-05T03:04:57.381Z,25.89
2022-08-05T03:09:59.329Z,25.79
2022-08-05T03:15:02.323Z,25.87
2022-08-05T03:20:10.329Z,25.82
2022-08-05T03:25:33.643Z,25.75
2022-08-05T03:30:36.709Z,25.65
2022-08-05T03:35:41.121Z,25.63
2022-08-05T03:40:47.297Z,25.67
2022-08-05T03:45:57.188Z,25.67
2022-08-05T03:52:37.938Z,25.69
2022-08-05T03:56:47.631Z,25.65
2022-08-05T04:01:58.900Z,25.57
2022-08-05T04:07:03.131Z,25.60
2022-08-05T04:12:24.600Z,25.63
2022-08-05T04:17:36.524Z,25.73
2022-08-05T04:22:50.348Z,25.72
2022-08-05T04:27:58.187Z,25.71
2022-08-05T04:33:01.499Z,25.73
2022-08-05T04:38:06.596Z,25.85
2022-08-05T04:43:10.969Z,25.85
2022-08-05T04:48:27.968Z,25.91
2022-08-05T04:53:33.957Z,25.87
2022-08-05T04:58:37.497Z,25.64
2022-08-05T05:03:41.822Z,25.82
2022-08-05T05:08:44.170Z,25.80
2022-08-05T05:13:51.774Z,25.99
2022-08-05T05:19:17.695Z,26.12
2022-08-05T05:24:21.614Z,26.13
2022-08-05T05:29:23.339Z,25.93
2022-08-05T05:34:26.896Z,25.87
2022-08-05T05:39:34.523Z,25.86
2022-08-05T05:44:45.899Z,25.83
2022-08-05T05:49:47.832Z,25.88
2022-08-05T05:55:13.263Z,25.67
2022-08-05T06:00:20.356Z,25.46
2022-08-05T06:05:22.107Z,25.32
2022-08-05T06:10:24.285Z,25.32
2022-08-05T06:16:27.474Z,25.20
2022-08-05T06:20:54.192Z,25.38
2022-08-05T06:26:12.684Z,25.65
2022-08-05T06:31:21.738Z,26.39
2022-08-05T06:36:25.977Z,26.52
2022-08-05T06:41:27.896Z,26.43
2022-08-05T06:46:30.621Z,26.29
2022-08-05T06:51:32.641Z,26.03
2022-08-05T06:56:35.156Z,26.07
2022-08-05T07:01:37.134Z,27.32
2022-08-05T07:06:42.622Z,28.67
2022-08-05T07:11:49.428Z,28.31
2022-08-05T07:18:00.161Z,27.36
2022-08-05T07:22:28.559Z,26.94
2022-08-05T07:27:58.469Z,26.32
2022-08-05T07:32:54.329Z,26.54
2022-08-05T07:37:56.077Z,26.71
2022-08-05T07:42:58.013Z,26.52
2022-08-05T07:48:00.643Z,26.38
2022-08-05T07:53:03.827Z,26.20
2022-08-05T07:58:06.349Z,26.02
2022-08-05T08:03:15.998Z,26.01
2022-08-05T08:08:19.823Z,25.77
2022-08-05T08:13:29.019Z,25.64
2022-08-05T08:18:31.221Z,25.74
2022-08-05T08:24:02.013Z,25.53
2022-08-05T08:28:55.284Z,25.73
2022-08-05T08:34:01.626Z,25.79
2022-08-05T08:39:03.825Z,25.78
2022-08-05T08:45:24.310Z,25.81
2022-08-05T08:50:14.250Z,25.95
2022-08-05T08:54:58.489Z,25.85
2022-08-05T09:00:05.150Z,25.66
2022-08-05T09:05:17.362Z,25.61
2022-08-05T09:10:21.802Z,25.77
2022-08-05T09:15:30.417Z,25.88
2022-08-05T09:20:37.314Z,26.03
2022-08-05T09:26:03.325Z,25.89
2022-08-05T09:32:35.984Z,25.96
2022-08-05T09:36:55.988Z,26.24
2022-08-05T09:42:04.668Z,26.17
2022-08-05T09:47:17.352Z,26.17
2022-08-05T09:52:35.790Z,25.90
2022-08-05T09:57:47.040Z,25.50
2022-08-05T10:02:54.617Z,25.01
2022-08-05T10:08:35.538Z,24.00
2022-08-05T10:13:45.817Z,24.01
2022-08-05T10:18:51.490Z,24.03
2022-08-05T10:23:59.706Z,24.49
2022-08-05T10:29:02.723Z,24.46
2022-08-05T10:34:06.991Z,24.51
2022-08-05T10:39:58.942Z,24.40
2022-08-05T10:44:56.070Z,24.40
2022-08-05T10:50:31.722Z,24.31
2022-08-05T10:56:03.448Z,24.96
2022-08-05T11:01:02.964Z,25.34
2022-08-05T11:06:16.184Z,25.18
2022-08-05T11:11:44.246Z,25.40
2022-08-05T11:17:59.038Z,25.79
2022-08-05T11:22:54.105Z,26.53
2022-08-05T11:28:11.743Z,26.89
2022-08-05T11:33:46.119Z,27.08
2022-08-05T11:38:51.257Z,27.30
2022-08-05T11:44:40.298Z,27.44
2022-08-05T11:49:38.223Z,27.60
2022-08-05T11:54:41.226Z,27.78
2022-08-05T11:59:50.162Z,27.63
2022-08-05T12:04:59.638Z,27.59
2022-08-05T12:10:09.258Z,27.70
2022-08-05T12:15:37.864Z,27.67
2022-08-05T12:20:40.600Z,27.70
2022-08-05T12:25:52.475Z,27.68
2022-08-05T12:30:57.627Z,27.73
2022-08-05T12:36:08.196Z,27.65
2022-08-05T12:41:14.821Z,27.71
2022-08-05T12:46:31.639Z,27.79
2022-08-05T12:52:13.745Z,27.72
2022-08-05T12:57:22.722Z,27.69
2022-08-05T13:02:30.272Z,27.95
2022-08-05T13:07:57.504Z,28.04
2022-08-05T13:12:58.233Z,28.00
2022-08-05T13:18:00.341Z,28.01
2022-08-05T13:23:07.123Z,27.81
2022-08-05T13:28:10.559Z,27.80
2022-08-05T13:33:14.239Z,27.68
2022-08-05T13:38:36.270Z,27.69
2022-08-05T13:43:45.858Z,27.83
2022-08-05T13:48:58.519Z,27.77
2022-08-05T13:54:02.285Z,27.80
2022-08-05T13:59:06.209Z,27.52
2022-08-05T14:04:41.112Z,27.37
2022-08-05T14:09:46.502Z,27.74
2022-08-05T14:14:48.738Z,28.17
2022-08-05T14:20:00.842Z,28.26
2022-08-05T14:25:06.149Z,28.09
2022-08-05T14:30:21.677Z,27.74
2022-08-05T14:35:23.744Z,27.68
2022-08-05T14:40:39.343Z,27.54
2022-08-05T14:45:41.179Z,27.13
2022-08-05T14:50:43.061Z,27.11
2022-08-05T14:55:47.293Z,26.94
2022-08-05T15:00:58.187Z,26.80
2022-08-05T15:06:08.331Z,26.74
2022-08-05T15:11:17.074Z,26.63
2022-08-05T15:16:18.820Z,26.48
2022-08-05T15:21:21.298Z,26.26
2022-08-05T15:26:31.940Z,26.19
2022-08-05T15:31:34.804Z,26.04
2022-08-05T15:36:36.837Z,25.91
2022-08-05T15:41:55.712Z,25.83
2022-08-05T15:47:01.721Z,25.69
2022-08-05T15:52:14.220Z,25.63
2022-08-05T15:57:19.727Z,25.69
2022-08-05T16:02:25.178Z,25.54
2022-08-05T16:07:29.576Z,25.43
2022-08-05T16:12:31.554Z,25.34
2022-08-05T16:17:33.695Z,25.23
2022-08-05T16:22:35.703Z,25.26
2022-08-05T16:28:00.715Z,25.12
2022-08-05T16:33:02.739Z,25.12
2022-08-05T16:38:24.700Z,24.92
2022-08-05T16:43:34.553Z,25.04
2022-08-05T16:48:38.374Z,25.24
2022-08-05T16:54:05.770Z,25.31
2022-08-05T16:59:09.213Z,25.23
2022-08-05T17:04:10.965Z,25.00
2022-08-05T17:09:16.884Z,24.61
2022-08-05T17:14:22.125Z,24.29
2022-08-05T17:19:36.444Z,23.82
2022-08-05T17:24:40.946Z,23.58
2022-08-05T17:29:50.173Z,23.40
2022-08-05T17:35:02.115Z,23.32
2022-08-05T17:40:10.155Z,23.07
2022-08-05T17:45:18.198Z,22.97
2022-08-05T17:50:30.423Z,22.80
2022-08-05T17:55:37.235Z,22.62
2022-08-05T18:00:47.640Z,22.65
2022-08-05T18:05:53.408Z,22.63
2022-08-05T18:10:56.028Z,22.60
2022-08-05T18:15:59.376Z,22.62
2022-08-05T18:21:01.673Z,22.67
2022-08-05T18:26:03.516Z,22.60
2022-08-05T18:31:07.238Z,22.55
2022-08-05T18:36:15.303Z,22.41
2022-08-05T18:41:53.710Z,22.17
2022-08-05T18:46:40.997Z,22.34
2022-08-05T18:52:06.810Z,22.06
2022-08-05T18:57:15.448Z,21.93
2022-08-05T19:02:38.073Z,21.65
2022-08-05T19:07:45.084Z,21.65
2022-08-05T19:12:48.784Z,21.56
2022-08-05T19:18:08.719Z,21.63
2022-08-05T19:24:03.339Z,21.68
2022-08-05T19:28:34.612Z,21.59
2022-08-05T19:33:38.059Z,21.71
2022-08-05T19:38:43.805Z,21.60
2022-08-05T19:44:05.674Z,21.87
2022-08-05T19:49:08.555Z,22.05
2022-08-05T19:54:21.781Z,22.01
2022-08-05T19:59:55.915Z,22.05
2022-08-05T20:04:55.570Z,22.03
2022-08-05T20:10:00.960Z,21.99
2022-08-05T20:15:02.679Z,21.93
2022-08-05T20:20:10.916Z,21.72
2022-08-05T20:25:12.701Z,21.78
2022-08-05T20:30:14.559Z,21.84
2022-08-05T20:35:20.061Z,21.76
2022-08-05T20:40:21.980Z,21.71
2022-08-05T20:45:23.800Z,21.49
2022-08-05T20:50:46.933Z,21.58
2022-08-05T20:55:56.130Z,21.52
2022-08-05T21:01:10.537Z,21.48
2022-08-05T21:06:27.772Z,21.43
2022-08-05T21:12:10.654Z,21.46
2022-08-05T21:16:52.276Z,21.36
2022-08-05T21:21:54.214Z,21.36
2022-08-05T21:26:58.752Z,21.31
2022-08-05T21:32:04.549Z,21.14
2022-08-05T21:37:08.160Z,21.07
2022-08-05T21:42:19.769Z,21.09
2022-08-05T21:47:56.501Z,21.09
2022-08-05T21:52:58.864Z,20.94
2022-08-05T21:58:01.550Z,20.91
2022-08-05T22:03:05.340Z,20.85
2022-08-05T22:08:07.080Z,20.77
2022-08-05T22:14:06.091Z,20.58
2022-08-05T22:18:49.153Z,20.50
2022-08-05T22:24:13.191Z,20.45
2022-08-05T22:29:33.102Z,20.49
2022-08-05T22:34:35.145Z,20.57
2022-08-05T22:39:38.030Z,20.48
2022-08-05T22:44:42.751Z,20.44
2022-08-05T22:50:20.635Z,20.29
2022-08-05T22:55:19.366Z,20.21
2022-08-05T23:00:24.074Z,20.13
2022-08-05T23:05:28.277Z,20.18
2022-08-05T23:10:32.694Z,20.08
2022-08-05T23:15:36.344Z,19.86
2022-08-05T23:20:38.325Z,19.70
2022-08-05T23:25:52.394Z,19.73
2022-08-05T23:31:02.246Z,19.57
2022-08-05T23:36:18.510Z,19.47
2022-08-05T23:41:21.052Z,19.45
2022-08-05T23:46:23.532Z,19.26
2022-08-05T23:51:25.302Z,19.30
2022-08-05T23:56:27.937Z,19.18
